Almira, Washington
Current Conditions -  °F | °C
As of 10:53 PM on Wednesday 22 Oct 2014 (Local Time) from KEPH Reporting Station
Light Rain Light Rain  
Wind Chill: 55°   Ceiling: 7500
Heat Index: 55°   Visibility: 10mi
Dew Point: 52°   Wind: 6mph
Humidity: 89%   Direction: 270°W
Pressure: 29.66"   Gusts: NA
Location:  47.71°N, 118.94°W
Report Text: KEPH 230553Z AUTO 27005KT 10SM -RA FEW055 OVC075 13/11 A2966 RMK AO2 RAE0454B19 SLP044 P0003 60004 T01280111 10133 20122 55003
Loading
Personal Weather Stations






























Interactive Weather Map
Tropical Storm Tracking
New forecast layout! Learn more

10-Day Weather Forecast

Advertisements
Track Severe Weather on mobile